Luck, Wisconsin
Current Conditions -  °F | °C
As of 3:55 PM on Friday 28 Nov 2014 (Local Time) from KRZN Reporting Station
Broken Clouds Broken Clouds  
Wind Chill: 10°   Ceiling: 6500
Heat Index: 18°   Visibility: 10mi
Dew Point: 12°   Wind: 6mph
Humidity: 76%   Direction: 120°ESE
Pressure: 29.87"   Gusts: NA
Location:  45.58°N, 92.48°W
Report Text: KRZN 282155Z AUTO 12005KT 10SM SCT018 BKN065 BKN100 M08/M11 A2987 RMK AO2 T10771113
Loading
Personal Weather Stations






























Interactive Weather Map New forecast layout! Learn more

10-Day Weather Forecast

Advertisements
Track Severe Weather on mobile